createdAt,value
2022-08-12T00:01:03.519Z,2.00
2022-08-12T00:03:51.261Z,1.97
2022-08-12T00:06:39.542Z,2.33
2022-08-12T00:09:26.552Z,2.43
2022-08-12T00:12:13.305Z,2.23
2022-08-12T00:15:01.194Z,2.30
2022-08-12T00:17:47.450Z,2.30
2022-08-12T00:20:33.477Z,2.33
2022-08-12T00:23:19.437Z,2.23
2022-08-12T00:26:22.667Z,2.23
2022-08-12T00:29:13.207Z,2.00
2022-08-12T00:32:01.314Z,2.20
2022-08-12T00:34:51.561Z,2.40
2022-08-12T00:37:40.246Z,2.40
2022-08-12T00:40:28.406Z,2.30
2022-08-12T00:42:56.760Z,1.80
2022-08-12T00:45:24.463Z,2.30
2022-08-12T00:47:53.443Z,2.23
2022-08-12T00:50:23.700Z,2.03
2022-08-12T00:52:53.073Z,2.10
2022-08-12T00:55:21.464Z,2.30
2022-08-12T00:57:50.907Z,2.20
2022-08-12T01:00:24.298Z,2.30
2022-08-12T01:02:55.712Z,1.90
2022-08-12T01:05:42.770Z,2.47
2022-08-12T01:08:29.024Z,2.20
2022-08-12T01:11:15.883Z,2.13
2022-08-12T01:13:50.031Z,2.30
2022-08-12T01:16:22.761Z,2.87
2022-08-12T01:18:54.944Z,2.73
2022-08-12T01:21:27.875Z,2.87
2022-08-12T01:24:22.927Z,3.30
2022-08-12T01:26:57.078Z,2.90
2022-08-12T01:29:28.568Z,3.33
2022-08-12T01:32:06.320Z,2.97
2022-08-12T01:34:37.343Z,2.50
2022-08-12T01:37:10.037Z,2.43
2022-08-12T01:40:36.250Z,2.40
2022-08-12T01:42:44.283Z,3.03
2022-08-12T01:45:12.535Z,2.60
2022-08-12T01:47:51.778Z,2.33
2022-08-12T01:50:29.965Z,3.20
2022-08-12T01:53:06.457Z,2.90
2022-08-12T01:55:37.171Z,2.73
2022-08-12T01:58:11.766Z,2.57
2022-08-12T02:00:55.450Z,2.77
2022-08-12T02:04:06.895Z,3.60
2022-08-12T02:07:11.434Z,2.70
2022-08-12T02:10:50.084Z,3.40
2022-08-12T02:13:49.712Z,3.70
2022-08-12T02:16:28.029Z,2.60
2022-08-12T02:19:23.042Z,3.27
2022-08-12T02:22:13.029Z,2.80
2022-08-12T02:24:43.959Z,3.00
2022-08-12T02:27:13.410Z,3.27
2022-08-12T02:29:41.034Z,2.80
2022-08-12T02:32:08.925Z,3.10
2022-08-12T02:34:37.244Z,3.30
2022-08-12T02:37:04.740Z,3.17
2022-08-12T02:39:35.715Z,2.93
2022-08-12T02:42:04.758Z,3.23
2022-08-12T02:44:40.244Z,3.00
2022-08-12T02:47:58.719Z,2.73
2022-08-12T02:49:58.759Z,2.80
2022-08-12T02:52:27.388Z,2.87
2022-08-12T02:55:13.339Z,2.87
2022-08-12T02:57:58.540Z,2.93
2022-08-12T03:00:26.123Z,2.77
2022-08-12T03:02:59.721Z,3.13
2022-08-12T03:05:27.967Z,3.57
2022-08-12T03:08:00.361Z,3.20
2022-08-12T03:10:37.603Z,3.13
2022-08-12T03:13:07.434Z,3.03
2022-08-12T03:15:35.925Z,3.23
2022-08-12T03:18:28.933Z,3.20
2022-08-12T03:20:58.274Z,3.10
2022-08-12T03:23:29.830Z,3.37
2022-08-12T03:26:00.636Z,3.47
2022-08-12T03:28:49.595Z,3.80
2022-08-12T03:31:19.217Z,2.63
2022-08-12T03:34:01.520Z,2.87
2022-08-12T03:36:35.716Z,3.50
2022-08-12T03:39:35.575Z,3.73
2022-08-12T03:42:28.216Z,3.30
2022-08-12T03:45:42.076Z,4.00
2022-08-12T03:48:38.872Z,4.93
2022-08-12T03:51:24.773Z,5.67
2022-08-12T03:54:11.493Z,5.23
2022-08-12T03:56:57.943Z,5.80
2022-08-12T03:59:43.885Z,4.90
2022-08-12T04:02:15.643Z,4.67
2022-08-12T04:04:45.538Z,4.37
2022-08-12T04:07:14.336Z,4.17
2022-08-12T04:09:43.829Z,4.53
2022-08-12T04:12:32.937Z,4.70
2022-08-12T04:15:01.653Z,5.00
2022-08-12T04:17:29.323Z,4.33
2022-08-12T04:19:57.959Z,4.20
2022-08-12T04:22:29.703Z,4.27
2022-08-12T04:25:02.157Z,5.10
2022-08-12T04:27:31.663Z,4.23
2022-08-12T04:30:21.355Z,5.30
2022-08-12T04:32:50.595Z,4.97
2022-08-12T04:35:18.225Z,4.90
2022-08-12T04:37:58.797Z,6.23
2022-08-12T04:40:31.117Z,5.33
2022-08-12T04:42:58.706Z,8.63
2022-08-12T04:45:25.761Z,10.87
2022-08-12T04:47:52.953Z,9.50
2022-08-12T04:50:33.998Z,6.60
2022-08-12T04:53:03.294Z,5.60
2022-08-12T04:55:30.274Z,5.80
2022-08-12T04:57:57.151Z,6.40
2022-08-12T05:00:24.234Z,6.27
2022-08-12T05:02:52.398Z,5.57
2022-08-12T05:05:23.082Z,4.87
2022-08-12T05:07:54.856Z,4.43
2022-08-12T05:10:33.584Z,4.50
2022-08-12T05:13:14.331Z,5.27
2022-08-12T05:16:02.356Z,4.67
2022-08-12T05:18:39.098Z,5.10
2022-08-12T05:21:08.102Z,4.43
2022-08-12T05:23:39.765Z,4.30
2022-08-12T05:26:07.383Z,3.90
2022-08-12T05:28:34.620Z,4.30
2022-08-12T05:31:02.114Z,3.60
2022-08-12T05:33:38.389Z,3.80
2022-08-12T05:36:12.637Z,3.23
2022-08-12T05:38:58.368Z,3.80
2022-08-12T05:41:32.927Z,3.27
2022-08-12T05:44:08.555Z,3.23
2022-08-12T05:46:37.031Z,3.10
2022-08-12T05:49:05.762Z,3.13
2022-08-12T05:51:40.911Z,3.10
2022-08-12T05:54:11.367Z,3.17
2022-08-12T05:56:40.856Z,3.30
2022-08-12T05:59:11.236Z,4.40
2022-08-12T06:02:09.790Z,4.20
2022-08-12T06:04:27.218Z,3.70
2022-08-12T06:06:54.499Z,3.67
2022-08-12T06:09:22.800Z,3.97
2022-08-12T06:11:59.892Z,3.73
2022-08-12T06:14:39.209Z,3.60
2022-08-12T06:17:09.124Z,3.70
2022-08-12T06:20:29.454Z,3.73
2022-08-12T06:22:26.691Z,3.93
2022-08-12T06:24:54.246Z,3.77
2022-08-12T06:27:21.635Z,3.70
2022-08-12T06:30:08.523Z,3.50
2022-08-12T06:32:42.797Z,3.50
2022-08-12T06:35:26.573Z,3.85
2022-08-12T06:38:35.029Z,4.30
2022-08-12T06:41:20.937Z,4.22
2022-08-12T06:44:07.161Z,3.83
2022-08-12T06:46:39.451Z,3.83
2022-08-12T06:49:07.020Z,4.00
2022-08-12T06:51:34.224Z,4.05
2022-08-12T06:54:02.187Z,3.00
2022-08-12T06:57:01.854Z,3.33
2022-08-12T06:59:21.938Z,3.28
2022-08-12T07:01:51.605Z,3.05
2022-08-12T07:04:37.217Z,3.42
2022-08-12T07:07:09.154Z,3.03
2022-08-12T07:10:00.073Z,2.92
2022-08-12T07:12:28.017Z,2.80
2022-08-12T07:14:59.560Z,2.80
2022-08-12T07:17:31.655Z,2.70
2022-08-12T07:20:04.021Z,2.63
2022-08-12T07:22:33.238Z,2.30
2022-08-12T07:25:19.227Z,2.30
2022-08-12T07:27:46.831Z,2.28
2022-08-12T07:30:14.489Z,1.98
2022-08-12T07:32:41.761Z,2.60
2022-08-12T07:35:09.186Z,2.38
2022-08-12T07:37:41.546Z,2.25
2022-08-12T07:40:12.076Z,2.20
2022-08-12T07:42:41.171Z,2.13
2022-08-12T07:45:09.591Z,2.30
2022-08-12T07:47:38.041Z,2.45
2022-08-12T07:50:09.273Z,2.20
2022-08-12T07:52:42.854Z,1.50
2022-08-12T07:55:12.160Z,2.05
2022-08-12T07:57:57.969Z,1.48
2022-08-12T08:00:27.515Z,1.80
2022-08-12T08:02:55.149Z,1.73
2022-08-12T08:05:24.752Z,1.60
2022-08-12T08:08:02.401Z,2.10
2022-08-12T08:10:33.409Z,1.27
2022-08-12T08:13:05.177Z,2.47
2022-08-12T08:16:01.079Z,1.38
2022-08-12T08:18:26.550Z,1.50
2022-08-12T08:20:56.537Z,1.33
2022-08-12T08:23:46.404Z,1.55
2022-08-12T08:26:18.069Z,1.73
2022-08-12T08:28:45.258Z,1.50
2022-08-12T08:31:14.323Z,1.42
2022-08-12T08:34:05.014Z,1.52
2022-08-12T08:36:29.129Z,1.80
2022-08-12T08:38:58.247Z,1.55
2022-08-12T08:42:15.460Z,1.40
2022-08-12T08:44:36.417Z,1.60
2022-08-12T08:47:05.620Z,1.60
2022-08-12T08:49:32.806Z,1.33
2022-08-12T08:52:09.482Z,1.40
2022-08-12T08:54:37.774Z,1.58
2022-08-12T08:57:11.113Z,3.08
2022-08-12T08:59:38.160Z,1.42
2022-08-12T09:02:07.764Z,1.20
2022-08-12T09:05:12.290Z,1.83
2022-08-12T09:07:51.053Z,1.67
2022-08-12T09:10:25.210Z,1.70
2022-08-12T09:13:23.324Z,1.88
2022-08-12T09:15:57.621Z,1.30
2022-08-12T09:21:14.670Z,1.67
2022-08-12T09:23:57.095Z,1.20
2022-08-12T09:26:28.350Z,1.60
2022-08-12T09:28:58.109Z,1.60
2022-08-12T09:32:03.818Z,1.40
2022-08-12T09:34:28.937Z,1.20
2022-08-12T09:37:18.918Z,1.60
2022-08-12T09:40:03.106Z,1.98
2022-08-12T09:43:16.018Z,1.50
2022-08-12T09:46:06.038Z,1.30
2022-08-12T09:48:35.034Z,1.38
2022-08-12T09:51:17.131Z,1.02
2022-08-12T09:54:33.714Z,1.52
2022-08-12T09:57:02.239Z,1.30
2022-08-12T10:00:15.192Z,1.40
2022-08-12T10:02:42.913Z,1.67
2022-08-12T10:05:05.951Z,1.25
2022-08-12T10:07:40.503Z,1.50
2022-08-12T10:10:22.743Z,2.40
2022-08-12T10:13:38.818Z,1.35
2022-08-12T10:16:05.252Z,1.60
2022-08-12T10:18:36.617Z,1.50
2022-08-12T10:21:21.844Z,1.60
2022-08-12T10:23:55.081Z,1.58
2022-08-12T10:26:44.686Z,1.35
2022-08-12T10:30:37.198Z,1.50
2022-08-12T10:32:43.862Z,1.98
2022-08-12T10:35:09.506Z,1.40
2022-08-12T10:38:38.983Z,1.88
2022-08-12T10:40:31.647Z,1.35
2022-08-12T10:43:18.922Z,1.60
2022-08-12T10:45:50.022Z,1.52
2022-08-12T10:48:26.922Z,1.23
2022-08-12T10:52:03.367Z,1.35
2022-08-12T10:53:52.764Z,2.00
2022-08-12T10:56:19.991Z,1.80
2022-08-12T10:58:49.197Z,1.40
2022-08-12T11:03:01.551Z,1.38
2022-08-12T11:04:35.477Z,1.80
2022-08-12T11:07:06.338Z,1.48
2022-08-12T11:10:00.965Z,1.60
2022-08-12T11:12:54.697Z,1.75
2022-08-12T11:15:33.042Z,1.67
2022-08-12T11:18:07.768Z,1.58
2022-08-12T11:20:40.001Z,1.63
2022-08-12T11:23:36.244Z,1.65
2022-08-12T11:26:04.984Z,2.03
2022-08-12T11:28:36.988Z,1.73
2022-08-12T11:31:12.425Z,1.67
2022-08-12T11:34:05.092Z,1.83
2022-08-12T11:36:31.234Z,1.70
2022-08-12T11:39:04.262Z,1.80
2022-08-12T11:41:34.646Z,2.65
2022-08-12T11:44:35.301Z,2.05
2022-08-12T11:46:53.049Z,1.75
2022-08-12T11:49:31.512Z,1.65
2022-08-12T11:52:04.126Z,1.90
2022-08-12T11:54:32.014Z,1.70
2022-08-12T11:57:02.326Z,2.03
2022-08-12T12:02:20.736Z,3.25
2022-08-12T12:04:52.807Z,2.70
2022-08-12T12:07:33.656Z,2.03
2022-08-12T12:10:13.392Z,1.77
2022-08-12T12:12:49.778Z,2.05
2022-08-12T12:15:25.424Z,1.55
2022-08-12T12:18:04.450Z,2.40
2022-08-12T12:20:31.466Z,1.70
2022-08-12T12:22:58.516Z,1.83
2022-08-12T12:25:59.662Z,1.88
2022-08-12T12:28:36.961Z,1.70
2022-08-12T12:31:04.186Z,2.00
2022-08-12T12:33:57.071Z,1.90
2022-08-12T12:36:24.129Z,2.00
2022-08-12T12:38:58.100Z,1.80
2022-08-12T12:42:41.923Z,1.70
2022-08-12T12:44:26.015Z,1.95
2022-08-12T12:47:04.252Z,1.63
2022-08-12T12:49:53.777Z,1.98
2022-08-12T12:52:21.428Z,2.30
2022-08-12T12:54:55.497Z,2.20
2022-08-12T12:57:36.207Z,2.10
2022-08-12T13:00:16.131Z,2.50
2022-08-12T13:02:54.084Z,2.38
2022-08-12T13:05:29.252Z,2.22
2022-08-12T13:08:01.168Z,1.63
2022-08-12T13:10:36.723Z,2.00
2022-08-12T13:14:07.925Z,1.80
2022-08-12T13:15:53.953Z,2.30
2022-08-12T13:18:39.787Z,1.90
2022-08-12T13:21:15.684Z,2.13
2022-08-12T13:23:56.551Z,2.00
2022-08-12T13:26:23.462Z,1.90
2022-08-12T13:28:56.104Z,2.30
2022-08-12T13:31:27.117Z,1.90
2022-08-12T13:34:32.087Z,2.30
2022-08-12T13:36:42.186Z,1.38
2022-08-12T13:39:09.944Z,2.13
2022-08-12T13:41:37.744Z,2.00
2022-08-12T13:44:10.553Z,1.80
2022-08-12T13:46:38.902Z,2.30
2022-08-12T13:49:07.808Z,1.73
2022-08-12T13:51:41.249Z,2.00
2022-08-12T13:54:13.880Z,1.90
2022-08-12T13:56:41.774Z,2.10
2022-08-12T13:59:20.506Z,1.70
2022-08-12T14:01:56.888Z,2.08
2022-08-12T14:04:24.874Z,1.80
2022-08-12T14:06:54.004Z,1.92
2022-08-12T14:09:21.005Z,1.98
2022-08-12T14:11:53.978Z,2.20
2022-08-12T14:14:31.663Z,2.22
2022-08-12T14:17:09.974Z,1.95
2022-08-12T14:20:00.697Z,2.20
2022-08-12T14:22:28.520Z,2.03
2022-08-12T14:24:58.331Z,2.38
2022-08-12T14:28:03.254Z,1.95
2022-08-12T14:30:15.516Z,2.00
2022-08-12T14:32:44.170Z,2.28
2022-08-12T14:35:12.491Z,2.10
2022-08-12T14:37:57.828Z,2.10
2022-08-12T14:40:29.906Z,2.10
2022-08-12T14:42:58.821Z,1.90
2022-08-12T14:45:45.071Z,2.38
2022-08-12T14:48:18.535Z,2.15
2022-08-12T14:51:02.649Z,2.40
2022-08-12T14:55:31.951Z,1.88
2022-08-12T14:59:55.707Z,2.13
2022-08-12T15:02:21.036Z,2.08
2022-08-12T15:04:55.920Z,2.10
2022-08-12T15:07:33.671Z,2.08
2022-08-12T15:10:10.855Z,2.17
2022-08-12T15:12:40.754Z,1.73
2022-08-12T15:15:10.301Z,2.10
2022-08-12T15:17:39.107Z,2.13
2022-08-12T15:20:28.413Z,2.17
2022-08-12T15:22:56.641Z,2.00
2022-08-12T15:25:27.067Z,1.90
2022-08-12T15:28:03.877Z,2.05
2022-08-12T15:30:37.294Z,1.98
2022-08-12T15:33:14.769Z,1.85
2022-08-12T15:35:52.934Z,1.98
2022-08-12T15:38:25.198Z,2.35
2022-08-12T15:40:54.603Z,2.05
2022-08-12T15:43:52.078Z,1.75
2022-08-12T15:46:14.790Z,1.77
2022-08-12T15:48:46.791Z,2.08
2022-08-12T15:51:57.243Z,1.90
2022-08-12T15:54:30.872Z,2.20
2022-08-12T15:57:05.521Z,2.17
2022-08-12T16:00:00.046Z,2.30
2022-08-12T16:02:20.575Z,1.95
2022-08-12T16:04:50.529Z,2.25
2022-08-12T16:07:21.740Z,1.92
2022-08-12T16:10:07.018Z,1.92
2022-08-12T16:12:54.410Z,1.88
2022-08-12T16:15:26.260Z,2.20
2022-08-12T16:18:14.574Z,1.95
2022-08-12T16:20:46.458Z,2.13
2022-08-12T16:23:36.514Z,2.28
2022-08-12T16:26:14.121Z,2.35
2022-08-12T16:28:47.381Z,1.95
2022-08-12T16:31:23.484Z,2.10
2022-08-12T16:34:00.012Z,2.30
2022-08-12T16:36:29.634Z,2.30
2022-08-12T16:38:57.469Z,1.60
2022-08-12T16:41:37.839Z,2.10
2022-08-12T16:44:06.267Z,2.10
2022-08-12T16:46:36.419Z,2.03
2022-08-12T16:49:13.029Z,2.00
2022-08-12T16:51:46.634Z,2.20
2022-08-12T16:54:17.005Z,2.33
2022-08-12T16:56:57.521Z,2.22
2022-08-12T16:59:30.767Z,2.28
2022-08-12T17:02:31.546Z,2.33
2022-08-12T17:05:03.661Z,1.98
2022-08-12T17:07:37.953Z,2.00
2022-08-12T17:10:07.933Z,2.00
2022-08-12T17:12:37.304Z,2.00
2022-08-12T17:15:50.332Z,2.20
2022-08-12T17:18:38.901Z,2.05
2022-08-12T17:20:46.713Z,2.40
2022-08-12T17:23:19.305Z,2.40
2022-08-12T17:25:50.236Z,1.80
2022-08-12T17:28:19.957Z,2.35
2022-08-12T17:30:57.438Z,2.13
2022-08-12T17:33:28.005Z,2.50
2022-08-12T17:36:03.601Z,2.10
2022-08-12T17:38:34.761Z,2.67
2022-08-12T17:41:08.202Z,2.17
2022-08-12T17:43:58.534Z,1.80
2022-08-12T17:46:33.431Z,2.00
2022-08-12T17:49:06.822Z,2.17
2022-08-12T17:52:02.082Z,2.30
2022-08-12T17:54:31.178Z,2.53
2022-08-12T17:57:00.261Z,2.28
2022-08-12T17:59:48.633Z,2.05
2022-08-12T18:02:17.873Z,1.98
2022-08-12T18:05:05.127Z,2.63
2022-08-12T18:07:39.496Z,2.42
2022-08-12T18:10:07.263Z,2.47
2022-08-12T18:12:52.370Z,2.75
2022-08-12T18:15:26.057Z,2.38
2022-08-12T18:17:59.900Z,2.47
2022-08-12T18:20:29.052Z,2.50
2022-08-12T18:22:59.478Z,2.42
2022-08-12T18:26:14.111Z,2.25
2022-08-12T18:28:40.432Z,2.92
2022-08-12T18:31:07.705Z,3.20
2022-08-12T18:33:43.718Z,3.58
2022-08-12T18:36:13.669Z,3.50
2022-08-12T18:38:44.969Z,4.22
2022-08-12T18:41:34.278Z,2.97
2022-08-12T18:44:09.618Z,3.33
2022-08-12T18:46:55.804Z,2.40
2022-08-12T18:49:28.604Z,2.90
2022-08-12T18:52:04.458Z,2.90
2022-08-12T18:54:49.015Z,2.40
2022-08-12T18:58:05.895Z,3.00
2022-08-12T19:00:18.882Z,2.90
2022-08-12T19:02:53.148Z,2.78
2022-08-12T19:05:52.909Z,2.70
2022-08-12T19:08:13.310Z,3.53
2022-08-12T19:10:42.320Z,2.60
2022-08-12T19:13:37.386Z,3.28
2022-08-12T19:16:10.745Z,3.08
2022-08-12T19:18:44.801Z,2.97
2022-08-12T19:21:16.274Z,3.10
2022-08-12T19:24:04.909Z,3.47
2022-08-12T19:26:35.082Z,3.20
2022-08-12T19:29:05.065Z,3.28
2022-08-12T19:31:58.029Z,3.17
2022-08-12T19:37:38.334Z,2.90
2022-08-12T19:40:31.711Z,3.20
2022-08-12T19:42:57.577Z,2.90
2022-08-12T19:45:43.182Z,3.33
2022-08-12T19:48:17.948Z,3.13
2022-08-12T19:50:50.238Z,3.58
2022-08-12T19:53:22.563Z,3.95
2022-08-12T19:55:55.242Z,3.78
2022-08-12T19:58:24.307Z,3.70
2022-08-12T20:00:53.634Z,4.00
2022-08-12T20:03:38.033Z,3.80
2022-08-12T20:06:15.805Z,3.72
2022-08-12T20:08:55.873Z,3.40
2022-08-12T20:12:10.131Z,3.97
2022-08-12T20:14:18.664Z,4.38
2022-08-12T20:16:52.637Z,4.22
2022-08-12T20:19:24.591Z,3.90
2022-08-12T20:22:14.734Z,3.60
2022-08-12T20:24:42.800Z,4.40
2022-08-12T20:27:29.224Z,4.68
2022-08-12T20:30:01.110Z,3.83
2022-08-12T20:32:29.710Z,4.93
2022-08-12T20:35:10.088Z,5.05
2022-08-12T20:38:07.407Z,4.32
2022-08-12T20:40:26.611Z,4.55
2022-08-12T20:42:56.207Z,5.20
2022-08-12T20:45:23.078Z,4.60
2022-08-12T20:48:02.003Z,4.78
2022-08-12T20:50:31.693Z,4.30
2022-08-12T20:53:01.389Z,5.05
2022-08-12T20:55:42.152Z,4.68
2022-08-12T20:58:10.834Z,5.40
2022-08-12T21:00:38.607Z,4.35
2022-08-12T21:03:24.126Z,4.22
2022-08-12T21:06:13.342Z,4.43
2022-08-12T21:08:42.792Z,4.32
2022-08-12T21:11:10.622Z,4.25
2022-08-12T21:13:39.473Z,4.78
2022-08-12T21:16:09.854Z,5.20
2022-08-12T21:18:38.192Z,4.65
2022-08-12T21:21:06.593Z,5.07
2022-08-12T21:23:38.386Z,5.25
2022-08-12T21:26:12.238Z,4.60
2022-08-12T21:28:58.867Z,3.80
2022-08-12T21:32:35.939Z,4.15
2022-08-12T21:34:26.188Z,4.28
2022-08-12T21:37:13.279Z,5.00
2022-08-12T21:39:52.334Z,4.70
2022-08-12T21:42:20.278Z,4.25
2022-08-12T21:45:45.684Z,4.50
2022-08-12T21:47:40.889Z,4.70
2022-08-12T21:50:09.129Z,4.38
2022-08-12T21:52:40.446Z,4.53
2022-08-12T21:55:19.288Z,4.60
2022-08-12T21:57:54.025Z,4.68
2022-08-12T22:00:34.277Z,4.80
2022-08-12T22:03:54.971Z,5.30
2022-08-12T22:06:25.872Z,4.90
2022-08-12T22:08:57.727Z,4.60
2022-08-12T22:11:42.407Z,4.25
2022-08-12T22:14:21.617Z,5.10
2022-08-12T22:16:53.238Z,4.82
2022-08-12T22:19:22.647Z,5.10
2022-08-12T22:21:53.973Z,4.72
2022-08-12T22:24:26.402Z,4.43
2022-08-12T22:27:18.225Z,4.53
2022-08-12T22:30:08.636Z,4.45
2022-08-12T22:32:49.865Z,4.40
2022-08-12T22:35:56.050Z,4.50
2022-08-12T22:38:26.783Z,4.82
2022-08-12T22:41:01.102Z,4.38
2022-08-12T22:43:59.070Z,4.22
2022-08-12T22:46:34.648Z,4.10
2022-08-12T22:49:01.652Z,4.15
2022-08-12T22:51:57.473Z,4.82
2022-08-12T22:54:35.867Z,4.22
2022-08-12T22:57:12.437Z,4.50
2022-08-12T22:59:51.237Z,4.57
2022-08-12T23:02:30.916Z,3.92
2022-08-12T23:04:58.595Z,4.65
2022-08-12T23:07:25.688Z,4.47
2022-08-12T23:09:53.701Z,4.38
2022-08-12T23:12:46.611Z,4.35
2022-08-12T23:15:14.914Z,3.83
2022-08-12T23:17:42.665Z,4.20
2022-08-12T23:20:11.467Z,3.97
2022-08-12T23:22:40.247Z,3.97
2022-08-12T23:25:19.248Z,3.75
2022-08-12T23:28:29.725Z,3.30
2022-08-12T23:31:04.691Z,3.85
2022-08-12T23:34:02.696Z,3.53
2022-08-12T23:36:39.100Z,3.65
2022-08-12T23:40:15.376Z,3.47
2022-08-12T23:42:18.125Z,3.70
2022-08-12T23:44:48.651Z,3.70
2022-08-12T23:47:21.422Z,3.60
2022-08-12T23:49:57.601Z,3.75
2022-08-12T23:52:28.540Z,3.50
2022-08-12T23:55:23.752Z,3.33
2022-08-12T23:58:20.936Z,3.50
